createdAt,value
2018-11-21T00:02:06.781Z,26.07
2018-11-21T00:05:10.615Z,27.63
2018-11-21T00:08:35.820Z,26.93
2018-11-21T00:11:40.050Z,27.62
2018-11-21T00:15:02.871Z,27.40
2018-11-21T00:18:25.682Z,28.27
2018-11-21T00:21:40.905Z,28.57
2018-11-21T00:24:59.067Z,29.17
2018-11-21T00:28:15.246Z,24.95
2018-11-21T00:31:30.875Z,29.00
2018-11-21T00:34:46.782Z,27.33
2018-11-21T00:38:02.179Z,26.83
2018-11-21T00:41:17.620Z,29.05
2018-11-21T00:44:33.346Z,30.30
2018-11-21T00:47:36.917Z,29.83
2018-11-21T00:50:40.481Z,28.13
2018-11-21T00:54:03.275Z,28.77
2018-11-21T00:57:19.049Z,29.20
2018-11-21T01:00:22.596Z,28.90
2018-11-21T01:03:45.515Z,27.75
2018-11-21T01:07:08.400Z,29.13
2018-11-21T01:10:23.890Z,30.43
2018-11-21T01:13:39.718Z,29.00
2018-11-21T01:16:55.249Z,28.63
2018-11-21T01:20:10.600Z,28.23
2018-11-21T01:23:26.932Z,29.20
2018-11-21T01:26:42.295Z,27.90
2018-11-21T01:29:57.902Z,28.87
2018-11-21T01:33:13.527Z,29.10
2018-11-21T01:36:28.936Z,28.37
2018-11-21T01:39:45.005Z,31.37
2018-11-21T01:43:00.169Z,31.20
2018-11-21T01:46:03.802Z,29.93
2018-11-21T01:49:26.598Z,31.03
2018-11-21T01:52:30.133Z,30.17
2018-11-21T01:55:55.421Z,29.80
2018-11-21T01:59:18.347Z,30.43
2018-11-21T02:02:34.593Z,31.23
2018-11-21T02:05:49.816Z,30.35
2018-11-21T02:09:05.906Z,32.80
2018-11-21T02:12:10.172Z,30.75
2018-11-21T02:15:33.005Z,32.17
2018-11-21T02:18:55.783Z,29.80
2018-11-21T02:22:11.264Z,30.80
2018-11-21T02:25:27.326Z,32.50
2018-11-21T02:28:30.891Z,30.47
2018-11-21T02:31:53.743Z,31.97
2018-11-21T02:35:16.709Z,31.50
2018-11-21T02:38:20.213Z,30.30
2018-11-21T02:41:23.811Z,31.70
2018-11-21T02:44:46.601Z,32.90
2018-11-21T02:48:02.710Z,33.18
2018-11-21T02:51:19.154Z,32.17
2018-11-21T02:54:35.544Z,32.47
2018-11-21T02:57:50.172Z,33.60
2018-11-21T03:01:05.537Z,30.83
2018-11-21T03:04:21.490Z,32.53
2018-11-21T03:07:37.697Z,33.08
2018-11-21T03:10:53.289Z,32.27
2018-11-21T03:14:08.647Z,30.70
2018-11-21T03:17:24.203Z,34.07
2018-11-21T03:20:39.873Z,31.27
2018-11-21T03:23:55.936Z,31.07
2018-11-21T03:27:11.758Z,32.97
2018-11-21T03:30:15.362Z,32.90
2018-11-21T03:33:38.154Z,33.50
2018-11-21T03:37:00.947Z,31.70
2018-11-21T03:40:16.709Z,32.47
2018-11-21T03:43:32.334Z,32.07
2018-11-21T03:46:49.040Z,31.10
2018-11-21T03:50:04.527Z,30.30
2018-11-21T03:53:20.203Z,30.47
2018-11-21T03:56:36.010Z,30.75
2018-11-21T03:59:52.252Z,32.20
2018-11-21T04:06:19.046Z,29.73
2018-11-21T04:09:34.845Z,30.08
2018-11-21T04:12:50.707Z,33.20
2018-11-21T04:16:06.547Z,31.62
2018-11-21T04:19:10.404Z,31.27
2018-11-21T04:22:33.205Z,30.73
2018-11-21T04:25:48.558Z,32.10
2018-11-21T04:29:04.964Z,31.50
2018-11-21T04:32:23.627Z,31.90
2018-11-21T04:35:39.758Z,31.95
2018-11-21T04:38:55.396Z,32.15
2018-11-21T04:41:58.947Z,32.80
2018-11-21T04:45:21.751Z,33.78
2018-11-21T04:48:37.528Z,31.47
2018-11-21T04:51:53.560Z,32.60
2018-11-21T04:55:09.314Z,33.40
2018-11-21T04:58:25.229Z,33.50
2018-11-21T05:01:28.788Z,33.00
2018-11-21T05:04:51.564Z,32.87
2018-11-21T05:08:14.383Z,32.47
2018-11-21T05:11:30.319Z,31.47
2018-11-21T05:14:33.869Z,33.60
2018-11-21T05:17:37.379Z,34.05
2018-11-21T05:21:00.174Z,34.00
2018-11-21T05:24:03.733Z,28.97
2018-11-21T05:27:26.548Z,33.57
2018-11-21T05:30:42.359Z,31.43
2018-11-21T05:33:57.853Z,33.87
2018-11-21T05:37:13.788Z,31.63
2018-11-21T05:40:17.383Z,34.90
2018-11-21T05:43:20.936Z,33.70
2018-11-21T05:46:43.756Z,32.90
2018-11-21T05:49:47.284Z,32.07
2018-11-21T05:53:10.119Z,32.43
2018-11-21T05:56:13.720Z,31.83
2018-11-21T05:59:17.264Z,33.77
2018-11-21T06:02:20.808Z,30.80
2018-11-21T06:05:43.701Z,31.83
2018-11-21T06:08:59.128Z,30.80
2018-11-21T06:12:15.141Z,30.70
2018-11-21T06:15:18.637Z,31.63
2018-11-21T06:18:41.507Z,28.73
2018-11-21T06:21:45.044Z,31.47
2018-11-21T06:25:08.380Z,31.12
2018-11-21T06:28:11.884Z,32.60
2018-11-21T06:31:34.731Z,30.57
2018-11-21T06:34:57.590Z,30.77
2018-11-21T06:38:13.206Z,31.00
2018-11-21T06:41:30.740Z,30.72
2018-11-21T06:44:45.205Z,29.30
2018-11-21T06:48:01.085Z,29.48
2018-11-21T06:51:17.229Z,30.80
2018-11-21T06:54:32.618Z,29.10
2018-11-21T06:57:48.099Z,26.97
2018-11-21T07:01:04.029Z,31.37
2018-11-21T07:04:19.474Z,29.80
2018-11-21T07:07:35.396Z,31.45
2018-11-21T07:10:50.849Z,30.57
2018-11-21T07:14:07.303Z,29.33
2018-11-21T07:17:11.037Z,29.00
2018-11-21T07:20:33.841Z,29.30
2018-11-21T07:23:49.469Z,29.97
2018-11-21T07:27:05.366Z,30.43
2018-11-21T07:30:11.919Z,28.12
2018-11-21T07:33:15.476Z,29.53
2018-11-21T07:36:19.166Z,28.23
2018-11-21T07:39:23.633Z,31.20
2018-11-21T07:42:27.093Z,28.87
2018-11-21T07:45:49.025Z,28.10
2018-11-21T07:48:52.562Z,29.30
2018-11-21T07:52:15.369Z,28.80
2018-11-21T07:55:30.964Z,27.27
2018-11-21T07:58:34.499Z,31.40
2018-11-21T08:02:10.039Z,29.07
2018-11-21T08:05:18.814Z,29.50
2018-11-21T08:08:50.232Z,30.70
2018-11-21T08:12:12.782Z,28.13
2018-11-21T08:15:35.315Z,28.60
2018-11-21T08:18:56.276Z,28.17
2018-11-21T08:22:38.425Z,29.07
2018-11-21T08:26:39.550Z,27.95
2018-11-21T08:29:43.109Z,27.77
2018-11-21T08:32:46.658Z,27.87
2018-11-21T08:36:09.475Z,28.37
2018-11-21T08:39:25.435Z,29.27
2018-11-21T08:42:28.936Z,27.70
2018-11-21T08:45:32.492Z,28.57
2018-11-21T08:48:55.282Z,28.87
2018-11-21T08:52:11.270Z,27.90
2018-11-21T08:55:27.188Z,27.97
2018-11-21T08:58:31.158Z,28.07
2018-11-21T09:01:53.977Z,27.23
2018-11-21T09:05:16.867Z,27.70
2018-11-21T09:08:32.955Z,28.87
2018-11-21T09:11:48.521Z,26.43
2018-11-21T09:15:03.741Z,28.77
2018-11-21T09:18:07.246Z,26.97
2018-11-21T09:21:11.483Z,27.07
2018-11-21T09:24:34.288Z,28.77
2018-11-21T09:27:50.489Z,27.90
2018-11-21T09:31:05.822Z,28.20
2018-11-21T09:34:21.713Z,27.80
2018-11-21T09:37:25.381Z,29.20
2018-11-21T09:40:48.283Z,29.30
2018-11-21T09:44:11.431Z,27.63
2018-11-21T09:47:14.941Z,28.80
2018-11-21T09:50:23.541Z,29.77
2018-11-21T09:53:46.051Z,29.97
2018-11-21T09:57:08.852Z,29.97
2018-11-21T10:00:26.131Z,27.65
2018-11-21T10:03:41.604Z,30.20
2018-11-21T10:06:45.914Z,28.60
2018-11-21T10:10:08.760Z,27.52
2018-11-21T10:13:13.157Z,29.37
2018-11-21T10:16:16.721Z,29.00
2018-11-21T10:19:39.576Z,27.80
2018-11-21T10:22:55.641Z,30.20
2018-11-21T10:26:11.691Z,28.27
2018-11-21T10:29:15.197Z,29.27
2018-11-21T10:32:18.745Z,29.70
2018-11-21T10:35:41.585Z,27.97
2018-11-21T10:39:05.646Z,28.60
2018-11-21T10:42:21.186Z,28.20
2018-11-21T10:45:37.111Z,30.62
2018-11-21T10:48:40.677Z,27.25
2018-11-21T10:52:03.502Z,29.20
2018-11-21T10:55:07.186Z,28.87
2018-11-21T10:58:11.695Z,29.13
2018-11-21T11:01:53.563Z,30.80
2018-11-21T11:05:16.792Z,27.40
2018-11-21T11:08:58.662Z,27.10
2018-11-21T11:12:30.052Z,26.63
2018-11-21T11:15:52.757Z,26.80
2018-11-21T11:19:24.519Z,25.57
2018-11-21T11:23:03.772Z,25.62
2018-11-21T11:26:34.148Z,27.30
2018-11-21T11:30:08.746Z,25.57
2018-11-21T11:33:41.343Z,26.73
2018-11-21T11:37:23.208Z,29.00
2018-11-21T11:41:05.062Z,28.35
2018-11-21T11:44:39.347Z,27.50
2018-11-21T11:48:13.849Z,28.13
2018-11-21T11:51:48.641Z,27.82
2018-11-21T11:55:00.502Z,27.70
2018-11-21T11:58:41.687Z,27.48
2018-11-21T12:02:23.527Z,27.30
2018-11-21T12:05:46.057Z,27.85
2018-11-21T12:09:29.067Z,26.00
2018-11-21T12:13:02.973Z,27.27
2018-11-21T12:16:37.403Z,27.37
2018-11-21T12:19:59.993Z,27.60
2018-11-21T12:23:22.512Z,25.43
2018-11-21T12:26:57.161Z,27.07
2018-11-21T12:30:32.122Z,25.60
2018-11-21T12:34:06.519Z,25.67
2018-11-21T12:37:40.933Z,26.50
2018-11-21T12:41:18.509Z,26.20
2018-11-21T12:44:53.442Z,26.87
2018-11-21T12:48:28.338Z,25.65
2018-11-21T12:52:02.748Z,27.43
2018-11-21T12:58:45.560Z,30.43
2018-11-21T13:02:20.294Z,29.25
2018-11-21T13:05:55.167Z,30.68
2018-11-21T13:09:36.472Z,29.70
2018-11-21T13:13:14.091Z,30.12
2018-11-21T13:16:45.137Z,31.87
2018-11-21T13:20:18.319Z,32.20
2018-11-21T13:23:52.572Z,33.13
2018-11-21T13:27:33.207Z,32.13
2018-11-21T13:31:11.107Z,32.80
2018-11-21T13:34:46.102Z,32.80
2018-11-21T13:38:12.888Z,30.70
2018-11-21T13:41:48.085Z,31.00
2018-11-21T13:45:22.862Z,31.47
2018-11-21T13:49:00.811Z,31.42
2018-11-21T13:52:35.738Z,31.87
2018-11-21T13:55:39.354Z,32.30
2018-11-21T13:59:02.155Z,34.30
2018-11-21T14:02:18.357Z,31.90
2018-11-21T14:05:34.569Z,33.97
2018-11-21T14:08:50.498Z,33.80
2018-11-21T14:12:06.717Z,34.80
2018-11-21T14:15:10.534Z,34.67
2018-11-21T14:18:33.404Z,33.40
2018-11-21T14:21:56.238Z,33.63
2018-11-21T14:25:12.798Z,32.77
2018-11-21T14:28:16.379Z,31.90
2018-11-21T14:31:39.224Z,32.48
2018-11-21T14:34:54.774Z,32.43
2018-11-21T14:38:10.015Z,34.30
2018-11-21T14:41:24.604Z,31.40
2018-11-21T14:44:47.443Z,33.95
2018-11-21T14:48:03.239Z,33.17
2018-11-21T14:51:18.613Z,32.37
2018-11-21T14:54:34.670Z,32.70
2018-11-21T14:57:50.169Z,34.03
2018-11-21T15:01:05.660Z,33.53
2018-11-21T15:04:21.889Z,31.43
2018-11-21T15:07:37.703Z,36.33
2018-11-21T15:10:53.489Z,32.20
2018-11-21T15:14:08.999Z,33.37
2018-11-21T15:17:13.486Z,34.55
2018-11-21T15:20:36.284Z,34.50
2018-11-21T15:23:52.433Z,32.57
2018-11-21T15:27:08.612Z,35.43
2018-11-21T15:30:15.448Z,32.45
2018-11-21T15:33:38.362Z,33.33
2018-11-21T15:36:42.615Z,34.98
2018-11-21T15:40:06.746Z,33.13
2018-11-21T15:43:24.244Z,33.67
2018-11-21T15:46:45.407Z,34.33
2018-11-21T15:52:24.798Z,33.80
2018-11-21T15:55:40.723Z,33.00
2018-11-21T15:58:56.743Z,32.33
2018-11-21T16:02:12.425Z,33.17
2018-11-21T16:05:28.318Z,31.70
2018-11-21T16:08:44.451Z,31.63
2018-11-21T16:12:00.223Z,31.80
2018-11-21T16:15:05.854Z,32.08
2018-11-21T16:18:10.801Z,30.30
2018-11-21T16:21:34.529Z,33.13
2018-11-21T16:24:58.270Z,31.83
2018-11-21T16:28:14.550Z,31.10
2018-11-21T16:31:30.234Z,31.65
2018-11-21T16:34:46.300Z,31.57
2018-11-21T16:38:05.050Z,32.03
2018-11-21T16:41:21.753Z,32.10
2018-11-21T16:44:37.735Z,31.63
2018-11-21T16:47:42.750Z,33.57
2018-11-21T16:51:06.585Z,32.83
2018-11-21T16:54:31.131Z,34.47
2018-11-21T16:57:55.793Z,32.97
2018-11-21T17:01:11.489Z,33.97
2018-11-21T17:04:16.563Z,30.90
2018-11-21T17:07:40.679Z,32.57
2018-11-21T17:11:04.410Z,31.10
2018-11-21T17:14:28.164Z,31.53
2018-11-21T17:17:44.565Z,31.60
2018-11-21T17:21:00.950Z,33.60
2018-11-21T17:24:17.216Z,31.40
2018-11-21T17:27:33.748Z,32.70
2018-11-21T17:30:39.075Z,30.40
2018-11-21T17:33:45.611Z,31.80
2018-11-21T17:37:08.169Z,32.88
2018-11-21T17:40:50.514Z,33.17
2018-11-21T17:43:55.596Z,29.87
2018-11-21T17:47:19.312Z,31.57
2018-11-21T17:50:24.978Z,30.30
2018-11-21T17:53:29.889Z,30.10
2018-11-21T17:56:54.603Z,32.83
2018-11-21T17:59:58.705Z,32.03
2018-11-21T18:03:23.322Z,32.37
2018-11-21T18:06:38.856Z,29.73
2018-11-21T18:09:44.395Z,32.00
2018-11-21T18:13:09.179Z,32.80
2018-11-21T18:16:14.367Z,30.05
2018-11-21T18:19:19.274Z,29.90
2018-11-21T18:22:43.805Z,31.85
2018-11-21T18:26:00.334Z,32.37
2018-11-21T18:29:16.547Z,32.40
2018-11-21T18:32:21.469Z,31.83
2018-11-21T18:35:26.544Z,34.10
2018-11-21T18:38:50.299Z,32.67
2018-11-21T18:42:14.074Z,28.87
2018-11-21T18:45:32.006Z,32.27
2018-11-21T18:48:48.766Z,31.50
2018-11-21T18:51:54.172Z,32.73
2018-11-21T18:55:37.964Z,33.27
2018-11-21T18:59:03.517Z,32.37
2018-11-21T19:02:08.551Z,30.52
2018-11-21T19:05:32.307Z,31.93
2018-11-21T19:08:56.039Z,30.30
2018-11-21T19:12:12.159Z,28.97
2018-11-21T19:15:17.606Z,30.73
2018-11-21T19:18:41.364Z,30.55
2018-11-21T19:21:46.336Z,26.50
2018-11-21T19:24:51.280Z,29.27
2018-11-21T19:28:15.041Z,28.47
2018-11-21T19:31:20.118Z,29.27
2018-11-21T19:34:43.856Z,28.90
2018-11-21T19:38:07.544Z,27.53
2018-11-21T19:41:23.784Z,26.87
2018-11-21T19:44:28.791Z,28.30
2018-11-21T19:47:33.736Z,28.73
2018-11-21T19:50:57.475Z,28.83
2018-11-21T19:54:21.215Z,26.90
2018-11-21T19:57:37.129Z,29.20
2018-11-21T20:00:53.008Z,28.00
2018-11-21T20:04:08.992Z,29.47
2018-11-21T20:07:14.725Z,28.47
2018-11-21T20:10:38.468Z,30.30
2018-11-21T20:14:02.260Z,28.93
2018-11-21T20:17:18.085Z,31.17
2018-11-21T20:20:23.560Z,27.40
2018-11-21T20:23:28.875Z,28.47
2018-11-21T20:26:33.830Z,29.97
2018-11-21T20:29:39.160Z,27.60
2018-11-21T20:32:45.096Z,28.00
2018-11-21T20:36:08.862Z,30.10
2018-11-21T20:39:32.600Z,25.92
2018-11-21T20:42:37.580Z,27.40
2018-11-21T20:45:42.576Z,26.83
2018-11-21T20:49:11.225Z,27.50
2018-11-21T20:52:30.501Z,25.90
2018-11-21T20:55:46.558Z,27.97
2018-11-21T20:59:03.820Z,28.10
2018-11-21T21:02:08.865Z,27.95
2018-11-21T21:05:32.644Z,28.57
2018-11-21T21:08:56.330Z,26.77
2018-11-21T21:12:12.362Z,27.90
2018-11-21T21:15:29.145Z,27.90
2018-11-21T21:18:44.811Z,27.27
2018-11-21T21:22:01.415Z,26.47
2018-11-21T21:25:19.316Z,27.30
2018-11-21T21:28:24.296Z,26.67
2018-11-21T21:31:29.230Z,28.87
2018-11-21T21:34:53.001Z,27.00
2018-11-21T21:38:16.695Z,26.35
2018-11-21T21:41:32.756Z,27.27
2018-11-21T21:44:37.686Z,26.03
2018-11-21T21:48:01.448Z,25.13
2018-11-21T21:51:06.726Z,26.80
2018-11-21T21:54:30.495Z,26.57
2018-11-21T21:57:46.865Z,26.07
2018-11-21T22:01:02.761Z,26.10
2018-11-21T22:04:18.404Z,27.07
2018-11-21T22:07:23.440Z,27.40
2018-11-21T22:10:47.547Z,25.70
2018-11-21T22:14:11.277Z,27.03
2018-11-21T22:17:16.219Z,27.40
2018-11-21T22:20:39.946Z,25.97
2018-11-21T22:23:45.196Z,25.52
2018-11-21T22:27:08.937Z,26.40
2018-11-21T22:30:32.665Z,28.13
2018-11-21T22:33:37.641Z,25.93
2018-11-21T22:36:42.565Z,27.67
2018-11-21T22:40:07.259Z,26.17
2018-11-21T22:43:31.026Z,26.77
2018-11-21T22:46:47.255Z,28.33
2018-11-21T22:50:03.646Z,26.90
2018-11-21T22:53:08.622Z,26.90
2018-11-21T22:56:32.345Z,27.57
2018-11-21T22:59:37.414Z,28.90
2018-11-21T23:02:42.651Z,26.90
2018-11-21T23:05:47.608Z,26.67
2018-11-21T23:09:12.506Z,29.47
2018-11-21T23:12:28.295Z,27.60
2018-11-21T23:15:33.259Z,26.40
2018-11-21T23:18:38.264Z,26.80
2018-11-21T23:22:02.092Z,26.93
2018-11-21T23:25:07.800Z,26.57
2018-11-21T23:28:31.545Z,25.67
2018-11-21T23:31:47.798Z,27.43
2018-11-21T23:34:52.700Z,27.43
2018-11-21T23:37:57.669Z,26.23
2018-11-21T23:41:21.389Z,27.97
2018-11-21T23:44:26.330Z,27.48
2018-11-21T23:47:50.069Z,26.40
2018-11-21T23:50:55.394Z,25.67
2018-11-21T23:54:00.360Z,26.65
2018-11-21T23:57:24.931Z,28.13
